Maria/jo Ann — WCZ7939 — position and weather

sailwx.info

Track history (hours):
 
Tides and Currents Weather Stations Pressure Air Temp Water Temp Dewpoint Dewpoint Depression Visibility Wind Speed Wind Dir Waves Ship Positions

Maria/jo Ann

Owner: BOAT SANTA RITA III INC, Peabody, MA. More information available from US FCC via Universal Licensing System.

Last reported at 2018-Jun-13 06:26 UTC. Time now 2018-Jun-24 03:42 UTC.
Position N 42°33' W 070°16'.
Warning: this ship's position is 10 days out of date.

Type: Fishing. MMSI: 367440240.

Date/timePositionNaut miles runAvg speedWind from/ knotsBaromVisibWave heightAir tempDewpointWater temp
2018-Jun-13 06:26N 42°33' W 070°16'3 7.4
2018-Jun-13 06:00N 42°32' W 070°20'4 7.1
2018-Jun-13 05:30N 42°31' W 070°25'4 7.3
2018-Jun-13 04:59N 42°29' W 070°30'4 7.8
2018-Jun-13 04:30N 42°28' W 070°34'4 7.5
2018-Jun-13 04:00N 42°26' W 070°39'4 7.8
2018-Jun-13 03:29N 42°25' W 070°44'5 7.2
2018-Jun-13 02:46N 42°23' W 070°51'3 7.7
2018-Jun-13 02:20N 42°22' W 070°55'3 7.2
2018-Jun-13 01:58N 42°20' W 070°58'3 6.5
2018-Jun-13 01:30N 42°21' W 071°01'1 1.2
2018-Jun-13 00:58N 42°21' W 071°02'0 0.0
2018-Jun-13 00:28N 42°21' W 071°02'0 0.0
2018-Jun-12 23:58N 42°21' W 071°02'0 0.0
2018-Jun-12 23:25N 42°21' W 071°02'0 0.0
2018-Jun-12 22:58N 42°21' W 071°02'0 0.0
2018-Jun-12 22:28N 42°21' W 071°02'0 0.0
2018-Jun-12 21:58N 42°21' W 071°02'0 0.0
2018-Jun-12 21:28N 42°21' W 071°02'0 0.0
2018-Jun-12 20:58N 42°21' W 071°02'0 0.0
2018-Jun-12 20:28N 42°21' W 071°02'0 0.0
2018-Jun-12 19:58N 42°21' W 071°02'0 0.0
2018-Jun-12 19:28N 42°21' W 071°02'0 0.0
2018-Jun-12 18:55N 42°21' W 071°02'0 0.0
2018-Jun-12 18:28N 42°21' W 071°02'0 0.0
2018-Jun-12 17:58N 42°21' W 071°02'0 0.0
2018-Jun-12 17:28N 42°21' W 071°02'0 0.0
2018-Jun-12 16:58N 42°21' W 071°02'0 0.0
2018-Jun-12 16:28N 42°21' W 071°02'0 0.0
2018-Jun-12 15:58N 42°21' W 071°02'0 0.0
2018-Jun-12 15:28N 42°21' W 071°02'0 0.0
2018-Jun-12 14:58N 42°21' W 071°02'0 0.0
2018-Jun-12 14:28N 42°21' W 071°02'0 0.0
2018-Jun-12 13:58N 42°21' W 071°02'0 0.0
2018-Jun-12 13:28N 42°21' W 071°02'0 0.0
2018-Jun-11 15:07N 42°21' W 071°02'0 0.0
2018-Jun-11 14:58N 42°21' W 071°02'0 0.0
2018-Jun-11 14:25N 42°21' W 071°02'0 0.0
2018-Jun-11 13:55N 42°21' W 071°02'0 0.0
2018-Jun-11 13:28N 42°21' W 071°02'0 0.0
2018-Jun-11 12:58N 42°21' W 071°02'  
Track history (hours):
 
Tides and Currents Weather Stations Pressure Air Temp Water Temp Dewpoint Dewpoint Depression Visibility Wind Speed Wind Dir Waves Ship Positions

Maria/jo Ann

Owner: BOAT SANTA RITA III INC, Peabody, MA. More information available from US FCC via Universal Licensing System.

Last reported at 2018-Jun-13 06:26 UTC. Time now 2018-Jun-24 03:42 UTC.
Position N 42°33' W 070°16'.
Warning: this ship's position is 10 days out of date.

Type: Fishing. MMSI: 367440240.

Date/timePositionNaut miles runAvg speedWind from/ knotsBaromVisibWave heightAir tempDewpointWater temp
2018-Jun-13 06:26N 42°33' W 070°16'3 7.4
2018-Jun-13 06:00N 42°32' W 070°20'4 7.1
2018-Jun-13 05:30N 42°31' W 070°25'4 7.3
2018-Jun-13 04:59N 42°29' W 070°30'4 7.8
2018-Jun-13 04:30N 42°28' W 070°34'4 7.5
2018-Jun-13 04:00N 42°26' W 070°39'4 7.8
2018-Jun-13 03:29N 42°25' W 070°44'5 7.2
2018-Jun-13 02:46N 42°23' W 070°51'3 7.7
2018-Jun-13 02:20N 42°22' W 070°55'3 7.2
2018-Jun-13 01:58N 42°20' W 070°58'3 6.5
2018-Jun-13 01:30N 42°21' W 071°01'1 1.2
2018-Jun-13 00:58N 42°21' W 071°02'0 0.0
2018-Jun-13 00:28N 42°21' W 071°02'0 0.0
2018-Jun-12 23:58N 42°21' W 071°02'0 0.0
2018-Jun-12 23:25N 42°21' W 071°02'0 0.0
2018-Jun-12 22:58N 42°21' W 071°02'0 0.0
2018-Jun-12 22:28N 42°21' W 071°02'0 0.0
2018-Jun-12 21:58N 42°21' W 071°02'0 0.0
2018-Jun-12 21:28N 42°21' W 071°02'0 0.0
2018-Jun-12 20:58N 42°21' W 071°02'0 0.0
2018-Jun-12 20:28N 42°21' W 071°02'0 0.0
2018-Jun-12 19:58N 42°21' W 071°02'0 0.0
2018-Jun-12 19:28N 42°21' W 071°02'0 0.0
2018-Jun-12 18:55N 42°21' W 071°02'0 0.0
2018-Jun-12 18:28N 42°21' W 071°02'0 0.0
2018-Jun-12 17:58N 42°21' W 071°02'0 0.0
2018-Jun-12 17:28N 42°21' W 071°02'0 0.0
2018-Jun-12 16:58N 42°21' W 071°02'0 0.0
2018-Jun-12 16:28N 42°21' W 071°02'0 0.0
2018-Jun-12 15:58N 42°21' W 071°02'0 0.0
2018-Jun-12 15:28N 42°21' W 071°02'0 0.0
2018-Jun-12 14:58N 42°21' W 071°02'0 0.0
2018-Jun-12 14:28N 42°21' W 071°02'0 0.0
2018-Jun-12 13:58N 42°21' W 071°02'0 0.0
2018-Jun-12 13:28N 42°21' W 071°02'0 0.0
2018-Jun-11 15:07N 42°21' W 071°02'0 0.0
2018-Jun-11 14:58N 42°21' W 071°02'0 0.0
2018-Jun-11 14:25N 42°21' W 071°02'0 0.0
2018-Jun-11 13:55N 42°21' W 071°02'0 0.0
2018-Jun-11 13:28N 42°21' W 071°02'0 0.0
2018-Jun-11 12:58N 42°21' W 071°02'  

Dump ship's entire track history